sensor_id;sensor_type;location;lat;lon;timestamp;P1;durP1;ratioP1;P2;durP2;ratioP2
3589;SDS011;1809;48.470;9.226;2023-08-06T00:00:19;6.80;;;5.60;;
3589;SDS011;1809;48.470;9.226;2023-08-06T00:02:45;6.93;;;6.23;;
3589;SDS011;1809;48.470;9.226;2023-08-06T00:05:10;7.63;;;6.30;;
3589;SDS011;1809;48.470;9.226;2023-08-06T00:07:36;6.33;;;5.80;;
3589;SDS011;1809;48.470;9.226;2023-08-06T00:10:01;14.67;;;7.00;;
3589;SDS011;1809;48.470;9.226;2023-08-06T00:12:26;10.20;;;6.53;;
3589;SDS011;1809;48.470;9.226;2023-08-06T00:14:52;6.90;;;6.20;;
3589;SDS011;1809;48.470;9.226;2023-08-06T00:17:18;7.43;;;6.73;;
3589;SDS011;1809;48.470;9.226;2023-08-06T00:19:43;7.23;;;5.57;;
3589;SDS011;1809;48.470;9.226;2023-08-06T00:22:08;7.10;;;6.27;;
3589;SDS011;1809;48.470;9.226;2023-08-06T00:24:34;7.30;;;6.10;;
3589;SDS011;1809;48.470;9.226;2023-08-06T00:27:00;7.40;;;6.80;;
3589;SDS011;1809;48.470;9.226;2023-08-06T00:29:25;6.73;;;6.13;;
3589;SDS011;1809;48.470;9.226;2023-08-06T00:31:51;5.73;;;5.27;;
3589;SDS011;1809;48.470;9.226;2023-08-06T00:34:16;7.60;;;5.27;;
3589;SDS011;1809;48.470;9.226;2023-08-06T00:36:41;5.80;;;5.30;;
3589;SDS011;1809;48.470;9.226;2023-08-06T00:39:07;5.83;;;5.33;;
3589;SDS011;1809;48.470;9.226;2023-08-06T00:41:32;8.50;;;7.37;;
3589;SDS011;1809;48.470;9.226;2023-08-06T00:43:58;6.33;;;5.73;;
3589;SDS011;1809;48.470;9.226;2023-08-06T00:46:23;9.30;;;6.87;;
3589;SDS011;1809;48.470;9.226;2023-08-06T00:48:48;7.93;;;6.80;;
3589;SDS011;1809;48.470;9.226;2023-08-06T00:51:15;6.40;;;5.90;;
3589;SDS011;1809;48.470;9.226;2023-08-06T00:53:41;6.50;;;5.90;;
3589;SDS011;1809;48.470;9.226;2023-08-06T00:56:10;7.00;;;6.33;;
3589;SDS011;1809;48.470;9.226;2023-08-06T00:58:37;7.07;;;6.03;;
3589;SDS011;1809;48.470;9.226;2023-08-06T01:01:03;6.87;;;6.17;;
3589;SDS011;1809;48.470;9.226;2023-08-06T01:03:29;6.20;;;5.60;;
3589;SDS011;1809;48.470;9.226;2023-08-06T01:05:54;7.20;;;5.60;;
3589;SDS011;1809;48.470;9.226;2023-08-06T01:11:26;5.57;;;5.07;;
3589;SDS011;1809;48.470;9.226;2023-08-06T01:14:02;6.13;;;5.50;;
3589;SDS011;1809;48.470;9.226;2023-08-06T01:16:37;9.30;;;5.30;;
3589;SDS011;1809;48.470;9.226;2023-08-06T01:19:04;7.27;;;6.20;;
3589;SDS011;1809;48.470;9.226;2023-08-06T01:21:30;6.20;;;5.60;;
3589;SDS011;1809;48.470;9.226;2023-08-06T01:23:55;5.40;;;4.90;;
3589;SDS011;1809;48.470;9.226;2023-08-06T01:26:25;5.40;;;3.90;;
3589;SDS011;1809;48.470;9.226;2023-08-06T01:29:06;8.23;;;4.10;;
3589;SDS011;1809;48.470;9.226;2023-08-06T01:31:37;4.77;;;4.30;;
3589;SDS011;1809;48.470;9.226;2023-08-06T01:34:05;6.43;;;4.13;;
3589;SDS011;1809;48.470;9.226;2023-08-06T01:36:34;3.93;;;3.63;;
3589;SDS011;1809;48.470;9.226;2023-08-06T01:39:00;8.90;;;5.30;;
3589;SDS011;1809;48.470;9.226;2023-08-06T01:41:26;6.77;;;4.13;;
3589;SDS011;1809;48.470;9.226;2023-08-06T01:43:52;4.53;;;3.80;;
3589;SDS011;1809;48.470;9.226;2023-08-06T01:46:17;4.60;;;3.97;;
3589;SDS011;1809;48.470;9.226;2023-08-06T01:48:43;7.20;;;3.97;;
3589;SDS011;1809;48.470;9.226;2023-08-06T01:51:09;11.93;;;4.00;;
3589;SDS011;1809;48.470;9.226;2023-08-06T01:53:37;5.77;;;4.37;;
3589;SDS011;1809;48.470;9.226;2023-08-06T01:56:03;8.97;;;4.30;;
3589;SDS011;1809;48.470;9.226;2023-08-06T01:58:28;5.00;;;3.67;;
3589;SDS011;1809;48.470;9.226;2023-08-06T02:00:54;5.20;;;4.00;;
3589;SDS011;1809;48.470;9.226;2023-08-06T02:03:19;5.30;;;3.70;;
3589;SDS011;1809;48.470;9.226;2023-08-06T02:05:45;4.30;;;3.07;;
3589;SDS011;1809;48.470;9.226;2023-08-06T02:08:10;6.30;;;3.43;;
3589;SDS011;1809;48.470;9.226;2023-08-06T02:10:36;4.23;;;3.80;;
3589;SDS011;1809;48.470;9.226;2023-08-06T02:13:02;5.30;;;3.70;;
3589;SDS011;1809;48.470;9.226;2023-08-06T02:15:27;4.00;;;3.23;;
3589;SDS011;1809;48.470;9.226;2023-08-06T02:17:52;5.30;;;4.00;;
3589;SDS011;1809;48.470;9.226;2023-08-06T02:20:18;5.07;;;4.57;;
3589;SDS011;1809;48.470;9.226;2023-08-06T02:22:43;7.90;;;4.17;;
3589;SDS011;1809;48.470;9.226;2023-08-06T02:25:09;4.30;;;3.90;;
3589;SDS011;1809;48.470;9.226;2023-08-06T02:27:34;4.00;;;3.70;;
3589;SDS011;1809;48.470;9.226;2023-08-06T02:30:02;7.63;;;3.90;;
3589;SDS011;1809;48.470;9.226;2023-08-06T02:32:29;5.10;;;4.47;;
3589;SDS011;1809;48.470;9.226;2023-08-06T02:34:56;9.83;;;3.77;;
3589;SDS011;1809;48.470;9.226;2023-08-06T02:37:22;4.70;;;4.30;;
3589;SDS011;1809;48.470;9.226;2023-08-06T02:39:47;8.50;;;4.00;;
3589;SDS011;1809;48.470;9.226;2023-08-06T02:42:13;5.27;;;3.87;;
3589;SDS011;1809;48.470;9.226;2023-08-06T02:44:38;5.30;;;3.67;;
3589;SDS011;1809;48.470;9.226;2023-08-06T02:47:04;4.90;;;3.87;;
3589;SDS011;1809;48.470;9.226;2023-08-06T02:49:30;8.30;;;3.83;;
3589;SDS011;1809;48.470;9.226;2023-08-06T02:51:55;3.80;;;3.50;;
3589;SDS011;1809;48.470;9.226;2023-08-06T02:54:21;3.37;;;3.13;;
3589;SDS011;1809;48.470;9.226;2023-08-06T02:56:46;2.93;;;2.37;;
3589;SDS011;1809;48.470;9.226;2023-08-06T02:59:12;4.80;;;3.63;;
3589;SDS011;1809;48.470;9.226;2023-08-06T03:01:38;4.77;;;3.07;;
3589;SDS011;1809;48.470;9.226;2023-08-06T03:04:03;6.03;;;3.30;;
3589;SDS011;1809;48.470;9.226;2023-08-06T03:06:29;3.90;;;3.60;;
3589;SDS011;1809;48.470;9.226;2023-08-06T03:08:54;3.33;;;3.03;;
3589;SDS011;1809;48.470;9.226;2023-08-06T03:11:19;3.63;;;3.33;;
3589;SDS011;1809;48.470;9.226;2023-08-06T03:13:45;4.30;;;3.20;;
3589;SDS011;1809;48.470;9.226;2023-08-06T03:16:11;6.93;;;2.87;;
3589;SDS011;1809;48.470;9.226;2023-08-06T03:18:36;7.60;;;3.47;;
3589;SDS011;1809;48.470;9.226;2023-08-06T03:21:02;5.17;;;3.00;;
3589;SDS011;1809;48.470;9.226;2023-08-06T03:23:27;2.43;;;2.17;;
3589;SDS011;1809;48.470;9.226;2023-08-06T03:25:52;4.03;;;2.70;;
3589;SDS011;1809;48.470;9.226;2023-08-06T03:28:18;2.80;;;2.27;;
3589;SDS011;1809;48.470;9.226;2023-08-06T03:30:43;4.70;;;3.07;;
3589;SDS011;1809;48.470;9.226;2023-08-06T03:33:09;4.60;;;2.50;;
3589;SDS011;1809;48.470;9.226;2023-08-06T03:35:34;5.00;;;2.33;;
3589;SDS011;1809;48.470;9.226;2023-08-06T03:38:00;4.40;;;2.87;;
3589;SDS011;1809;48.470;9.226;2023-08-06T03:40:25;6.03;;;2.97;;
3589;SDS011;1809;48.470;9.226;2023-08-06T03:42:50;4.90;;;2.70;;
3589;SDS011;1809;48.470;9.226;2023-08-06T03:45:16;5.80;;;2.20;;
3589;SDS011;1809;48.470;9.226;2023-08-06T03:47:41;3.27;;;2.37;;
3589;SDS011;1809;48.470;9.226;2023-08-06T03:50:07;4.10;;;2.37;;
3589;SDS011;1809;48.470;9.226;2023-08-06T03:52:32;2.40;;;2.13;;
3589;SDS011;1809;48.470;9.226;2023-08-06T03:54:57;3.13;;;1.50;;
3589;SDS011;1809;48.470;9.226;2023-08-06T03:57:23;1.93;;;1.50;;
3589;SDS011;1809;48.470;9.226;2023-08-06T03:59:48;5.10;;;1.40;;
3589;SDS011;1809;48.470;9.226;2023-08-06T04:02:13;1.93;;;1.57;;
3589;SDS011;1809;48.470;9.226;2023-08-06T04:04:39;3.00;;;1.60;;
3589;SDS011;1809;48.470;9.226;2023-08-06T04:07:04;3.77;;;1.93;;
3589;SDS011;1809;48.470;9.226;2023-08-06T04:09:30;2.23;;;1.37;;
3589;SDS011;1809;48.470;9.226;2023-08-06T04:11:55;1.60;;;1.50;;
3589;SDS011;1809;48.470;9.226;2023-08-06T04:14:21;2.03;;;1.23;;
3589;SDS011;1809;48.470;9.226;2023-08-06T04:16:46;2.90;;;1.73;;
3589;SDS011;1809;48.470;9.226;2023-08-06T04:19:11;3.80;;;1.90;;
3589;SDS011;1809;48.470;9.226;2023-08-06T04:21:37;5.40;;;1.67;;
3589;SDS011;1809;48.470;9.226;2023-08-06T04:24:02;2.00;;;1.60;;
3589;SDS011;1809;48.470;9.226;2023-08-06T04:26:28;5.57;;;1.77;;
3589;SDS011;1809;48.470;9.226;2023-08-06T04:28:53;1.70;;;1.60;;
3589;SDS011;1809;48.470;9.226;2023-08-06T04:31:18;3.53;;;2.27;;
3589;SDS011;1809;48.470;9.226;2023-08-06T04:33:44;4.33;;;1.37;;
3589;SDS011;1809;48.470;9.226;2023-08-06T04:36:09;4.67;;;1.67;;
3589;SDS011;1809;48.470;9.226;2023-08-06T04:38:34;2.60;;;1.93;;
3589;SDS011;1809;48.470;9.226;2023-08-06T04:41:01;2.30;;;2.10;;
3589;SDS011;1809;48.470;9.226;2023-08-06T04:43:27;4.60;;;1.50;;
3589;SDS011;1809;48.470;9.226;2023-08-06T04:45:53;1.60;;;1.50;;
3589;SDS011;1809;48.470;9.226;2023-08-06T04:48:19;5.07;;;1.13;;
3589;SDS011;1809;48.470;9.226;2023-08-06T04:50:48;1.23;;;1.10;;
3589;SDS011;1809;48.470;9.226;2023-08-06T04:53:15;1.33;;;1.10;;
3589;SDS011;1809;48.470;9.226;2023-08-06T04:55:40;1.00;;;1.00;;
3589;SDS011;1809;48.470;9.226;2023-08-06T04:58:06;3.50;;;0.80;;
3589;SDS011;1809;48.470;9.226;2023-08-06T05:00:31;2.10;;;1.20;;
3589;SDS011;1809;48.470;9.226;2023-08-06T05:02:59;3.77;;;1.30;;
3589;SDS011;1809;48.470;9.226;2023-08-06T05:05:25;0.77;;;0.77;;
3589;SDS011;1809;48.470;9.226;2023-08-06T05:07:50;1.43;;;1.33;;
3589;SDS011;1809;48.470;9.226;2023-08-06T05:10:16;1.10;;;1.00;;
3589;SDS011;1809;48.470;9.226;2023-08-06T05:12:41;5.50;;;1.10;;
3589;SDS011;1809;48.470;9.226;2023-08-06T05:15:07;2.43;;;0.90;;
3589;SDS011;1809;48.470;9.226;2023-08-06T05:17:33;2.40;;;1.00;;
3589;SDS011;1809;48.470;9.226;2023-08-06T05:19:58;1.30;;;0.97;;
3589;SDS011;1809;48.470;9.226;2023-08-06T05:22:24;1.47;;;1.00;;
3589;SDS011;1809;48.470;9.226;2023-08-06T05:24:50;1.50;;;0.70;;
3589;SDS011;1809;48.470;9.226;2023-08-06T05:27:15;0.90;;;0.90;;
3589;SDS011;1809;48.470;9.226;2023-08-06T05:29:41;1.10;;;1.00;;
3589;SDS011;1809;48.470;9.226;2023-08-06T05:32:06;0.80;;;0.70;;
3589;SDS011;1809;48.470;9.226;2023-08-06T05:34:32;0.90;;;0.80;;
3589;SDS011;1809;48.470;9.226;2023-08-06T05:36:57;2.70;;;0.90;;
3589;SDS011;1809;48.470;9.226;2023-08-06T05:39:22;1.30;;;0.80;;
3589;SDS011;1809;48.470;9.226;2023-08-06T05:41:48;1.20;;;0.80;;
3589;SDS011;1809;48.470;9.226;2023-08-06T05:44:13;1.63;;;1.17;;
3589;SDS011;1809;48.470;9.226;2023-08-06T05:46:39;0.80;;;0.70;;
3589;SDS011;1809;48.470;9.226;2023-08-06T05:49:04;2.60;;;1.03;;
3589;SDS011;1809;48.470;9.226;2023-08-06T05:51:30;0.73;;;0.73;;
3589;SDS011;1809;48.470;9.226;2023-08-06T05:53:55;1.00;;;0.70;;
3589;SDS011;1809;48.470;9.226;2023-08-06T05:56:21;2.00;;;0.60;;
3589;SDS011;1809;48.470;9.226;2023-08-06T05:58:46;9.10;;;0.70;;
3589;SDS011;1809;48.470;9.226;2023-08-06T06:01:12;1.83;;;0.80;;
3589;SDS011;1809;48.470;9.226;2023-08-06T06:03:38;6.23;;;0.60;;
3589;SDS011;1809;48.470;9.226;2023-08-06T06:06:03;0.83;;;0.60;;
3589;SDS011;1809;48.470;9.226;2023-08-06T06:08:29;2.77;;;1.07;;
3589;SDS011;1809;48.470;9.226;2023-08-06T06:10:54;1.77;;;0.77;;
3589;SDS011;1809;48.470;9.226;2023-08-06T06:13:19;2.10;;;0.70;;
3589;SDS011;1809;48.470;9.226;2023-08-06T06:15:46;1.47;;;0.67;;
3589;SDS011;1809;48.470;9.226;2023-08-06T06:18:12;3.13;;;1.10;;
3589;SDS011;1809;48.470;9.226;2023-08-06T06:20:38;2.90;;;0.70;;
3589;SDS011;1809;48.470;9.226;2023-08-06T06:23:04;0.97;;;0.90;;
3589;SDS011;1809;48.470;9.226;2023-08-06T06:25:29;1.77;;;0.97;;
3589;SDS011;1809;48.470;9.226;2023-08-06T06:27:54;0.80;;;0.73;;
3589;SDS011;1809;48.470;9.226;2023-08-06T06:30:20;11.53;;;1.10;;
3589;SDS011;1809;48.470;9.226;2023-08-06T06:32:45;2.30;;;0.90;;
3589;SDS011;1809;48.470;9.226;2023-08-06T06:35:12;0.90;;;0.63;;
3589;SDS011;1809;48.470;9.226;2023-08-06T06:37:37;0.73;;;0.70;;
3589;SDS011;1809;48.470;9.226;2023-08-06T06:40:03;0.90;;;0.60;;
3589;SDS011;1809;48.470;9.226;2023-08-06T06:42:29;0.67;;;0.67;;
3589;SDS011;1809;48.470;9.226;2023-08-06T06:44:54;0.93;;;0.60;;
3589;SDS011;1809;48.470;9.226;2023-08-06T06:47:20;0.70;;;0.60;;
3589;SDS011;1809;48.470;9.226;2023-08-06T06:49:45;0.60;;;0.60;;
3589;SDS011;1809;48.470;9.226;2023-08-06T06:52:10;1.00;;;0.53;;
3589;SDS011;1809;48.470;9.226;2023-08-06T06:54:36;0.90;;;0.60;;
3589;SDS011;1809;48.470;9.226;2023-08-06T06:57:02;3.70;;;0.60;;
3589;SDS011;1809;48.470;9.226;2023-08-06T06:59:27;0.50;;;0.50;;
3589;SDS011;1809;48.470;9.226;2023-08-06T07:01:53;0.90;;;0.60;;
3589;SDS011;1809;48.470;9.226;2023-08-06T07:04:18;0.87;;;0.60;;
3589;SDS011;1809;48.470;9.226;2023-08-06T07:06:43;2.80;;;0.70;;
3589;SDS011;1809;48.470;9.226;2023-08-06T07:09:09;0.70;;;0.60;;
3589;SDS011;1809;48.470;9.226;2023-08-06T07:11:34;0.60;;;0.60;;
3589;SDS011;1809;48.470;9.226;2023-08-06T07:13:59;1.07;;;0.57;;
3589;SDS011;1809;48.470;9.226;2023-08-06T07:16:25;0.87;;;0.60;;
3589;SDS011;1809;48.470;9.226;2023-08-06T07:18:51;0.50;;;0.50;;
3589;SDS011;1809;48.470;9.226;2023-08-06T07:21:18;2.70;;;0.53;;
3589;SDS011;1809;48.470;9.226;2023-08-06T07:23:43;0.50;;;0.50;;
3589;SDS011;1809;48.470;9.226;2023-08-06T07:26:08;0.70;;;0.50;;
3589;SDS011;1809;48.470;9.226;2023-08-06T07:28:34;0.70;;;0.50;;
3589;SDS011;1809;48.470;9.226;2023-08-06T07:30:59;0.60;;;0.60;;
3589;SDS011;1809;48.470;9.226;2023-08-06T07:33:25;0.70;;;0.50;;
3589;SDS011;1809;48.470;9.226;2023-08-06T07:35:50;0.50;;;0.50;;
3589;SDS011;1809;48.470;9.226;2023-08-06T07:38:15;1.10;;;0.50;;
3589;SDS011;1809;48.470;9.226;2023-08-06T07:40:41;0.60;;;0.60;;
3589;SDS011;1809;48.470;9.226;2023-08-06T07:43:07;0.60;;;0.60;;
3589;SDS011;1809;48.470;9.226;2023-08-06T07:45:33;0.70;;;0.50;;
3589;SDS011;1809;48.470;9.226;2023-08-06T07:48:00;2.60;;;0.53;;
3589;SDS011;1809;48.470;9.226;2023-08-06T07:50:25;0.50;;;0.40;;
3589;SDS011;1809;48.470;9.226;2023-08-06T07:52:50;0.50;;;0.50;;
3589;SDS011;1809;48.470;9.226;2023-08-06T07:55:16;0.60;;;0.60;;
3589;SDS011;1809;48.470;9.226;2023-08-06T07:57:41;0.70;;;0.57;;
3589;SDS011;1809;48.470;9.226;2023-08-06T08:00:06;0.50;;;0.50;;
3589;SDS011;1809;48.470;9.226;2023-08-06T08:02:32;0.50;;;0.50;;
3589;SDS011;1809;48.470;9.226;2023-08-06T08:04:57;0.40;;;0.40;;
3589;SDS011;1809;48.470;9.226;2023-08-06T08:07:23;0.40;;;0.40;;
3589;SDS011;1809;48.470;9.226;2023-08-06T08:09:48;0.50;;;0.50;;
3589;SDS011;1809;48.470;9.226;2023-08-06T08:12:14;0.50;;;0.50;;
3589;SDS011;1809;48.470;9.226;2023-08-06T08:14:39;0.40;;;0.40;;
3589;SDS011;1809;48.470;9.226;2023-08-06T08:17:05;1.93;;;0.50;;
3589;SDS011;1809;48.470;9.226;2023-08-06T08:19:31;1.23;;;0.50;;
3589;SDS011;1809;48.470;9.226;2023-08-06T08:21:57;0.50;;;0.50;;
3589;SDS011;1809;48.470;9.226;2023-08-06T08:24:23;0.40;;;0.40;;
3589;SDS011;1809;48.470;9.226;2023-08-06T08:26:51;0.50;;;0.50;;
3589;SDS011;1809;48.470;9.226;2023-08-06T08:29:18;0.50;;;0.50;;
3589;SDS011;1809;48.470;9.226;2023-08-06T08:31:44;0.40;;;0.40;;
3589;SDS011;1809;48.470;9.226;2023-08-06T08:34:10;0.40;;;0.40;;
3589;SDS011;1809;48.470;9.226;2023-08-06T08:36:35;1.73;;;0.40;;
3589;SDS011;1809;48.470;9.226;2023-08-06T08:39:01;1.00;;;0.43;;
3589;SDS011;1809;48.470;9.226;2023-08-06T08:41:32;0.50;;;0.50;;
3589;SDS011;1809;48.470;9.226;2023-08-06T08:43:58;0.50;;;0.50;;
3589;SDS011;1809;48.470;9.226;2023-08-06T08:46:27;5.60;;;0.50;;
3589;SDS011;1809;48.470;9.226;2023-08-06T08:48:55;0.50;;;0.50;;
3589;SDS011;1809;48.470;9.226;2023-08-06T08:51:24;0.50;;;0.40;;
3589;SDS011;1809;48.470;9.226;2023-08-06T08:53:50;0.77;;;0.40;;
3589;SDS011;1809;48.470;9.226;2023-08-06T08:56:18;0.50;;;0.40;;
3589;SDS011;1809;48.470;9.226;2023-08-06T08:58:44;0.40;;;0.40;;
3589;SDS011;1809;48.470;9.226;2023-08-06T09:01:10;0.60;;;0.50;;
3589;SDS011;1809;48.470;9.226;2023-08-06T09:03:36;0.90;;;0.40;;
3589;SDS011;1809;48.470;9.226;2023-08-06T09:06:02;0.40;;;0.40;;
3589;SDS011;1809;48.470;9.226;2023-08-06T09:08:32;0.50;;;0.50;;
3589;SDS011;1809;48.470;9.226;2023-08-06T09:11:01;0.50;;;0.50;;
3589;SDS011;1809;48.470;9.226;2023-08-06T09:13:27;0.40;;;0.40;;
3589;SDS011;1809;48.470;9.226;2023-08-06T09:15:53;0.50;;;0.50;;
3589;SDS011;1809;48.470;9.226;2023-08-06T09:18:25;0.40;;;0.40;;
3589;SDS011;1809;48.470;9.226;2023-08-06T09:20:52;0.50;;;0.47;;
3589;SDS011;1809;48.470;9.226;2023-08-06T09:23:18;0.40;;;0.40;;
3589;SDS011;1809;48.470;9.226;2023-08-06T09:25:45;0.50;;;0.50;;
3589;SDS011;1809;48.470;9.226;2023-08-06T09:28:10;0.90;;;0.50;;
3589;SDS011;1809;48.470;9.226;2023-08-06T09:30:37;0.50;;;0.40;;
3589;SDS011;1809;48.470;9.226;2023-08-06T09:33:03;1.60;;;0.40;;
3589;SDS011;1809;48.470;9.226;2023-08-06T09:35:35;0.50;;;0.50;;
3589;SDS011;1809;48.470;9.226;2023-08-06T09:38:06;1.53;;;0.50;;
3589;SDS011;1809;48.470;9.226;2023-08-06T09:40:33;0.50;;;0.40;;
3589;SDS011;1809;48.470;9.226;2023-08-06T09:42:59;0.50;;;0.50;;
3589;SDS011;1809;48.470;9.226;2023-08-06T09:45:28;6.80;;;0.60;;
3589;SDS011;1809;48.470;9.226;2023-08-06T09:47:57;0.50;;;0.40;;
3589;SDS011;1809;48.470;9.226;2023-08-06T09:50:22;0.50;;;0.50;;
3589;SDS011;1809;48.470;9.226;2023-08-06T09:52:50;0.50;;;0.50;;
3589;SDS011;1809;48.470;9.226;2023-08-06T09:55:16;4.00;;;0.47;;
3589;SDS011;1809;48.470;9.226;2023-08-06T09:57:43;0.50;;;0.47;;
3589;SDS011;1809;48.470;9.226;2023-08-06T10:00:08;0.80;;;0.50;;
3589;SDS011;1809;48.470;9.226;2023-08-06T10:02:37;0.50;;;0.50;;
3589;SDS011;1809;48.470;9.226;2023-08-06T10:05:03;0.40;;;0.40;;
3589;SDS011;1809;48.470;9.226;2023-08-06T10:07:29;0.70;;;0.40;;
3589;SDS011;1809;48.470;9.226;2023-08-06T10:09:55;0.50;;;0.50;;
3589;SDS011;1809;48.470;9.226;2023-08-06T10:12:22;1.53;;;0.40;;
3589;SDS011;1809;48.470;9.226;2023-08-06T10:14:54;0.60;;;0.40;;
3589;SDS011;1809;48.470;9.226;2023-08-06T10:17:22;1.70;;;0.50;;
3589;SDS011;1809;48.470;9.226;2023-08-06T10:19:49;0.50;;;0.50;;
3589;SDS011;1809;48.470;9.226;2023-08-06T10:22:17;0.50;;;0.50;;
3589;SDS011;1809;48.470;9.226;2023-08-06T10:24:53;0.50;;;0.50;;
3589;SDS011;1809;48.470;9.226;2023-08-06T10:30:20;0.50;;;0.50;;
3589;SDS011;1809;48.470;9.226;2023-08-06T10:33:00;1.73;;;0.50;;
3589;SDS011;1809;48.470;9.226;2023-08-06T10:40:49;0.50;;;0.50;;
3589;SDS011;1809;48.470;9.226;2023-08-06T10:43:31;0.50;;;0.50;;
3589;SDS011;1809;48.470;9.226;2023-08-06T10:45:59;0.50;;;0.50;;
3589;SDS011;1809;48.470;9.226;2023-08-06T10:48:38;0.50;;;0.50;;
3589;SDS011;1809;48.470;9.226;2023-08-06T10:51:12;0.90;;;0.40;;
3589;SDS011;1809;48.470;9.226;2023-08-06T10:53:41;0.40;;;0.40;;
3589;SDS011;1809;48.470;9.226;2023-08-06T10:56:14;4.67;;;0.50;;
3589;SDS011;1809;48.470;9.226;2023-08-06T10:58:44;0.40;;;0.40;;
3589;SDS011;1809;48.470;9.226;2023-08-06T11:01:11;0.40;;;0.40;;
3589;SDS011;1809;48.470;9.226;2023-08-06T11:03:37;0.43;;;0.40;;
3589;SDS011;1809;48.470;9.226;2023-08-06T11:06:03;0.60;;;0.50;;
3589;SDS011;1809;48.470;9.226;2023-08-06T11:08:32;0.60;;;0.60;;
3589;SDS011;1809;48.470;9.226;2023-08-06T11:11:12;0.40;;;0.40;;
3589;SDS011;1809;48.470;9.226;2023-08-06T11:13:39;0.40;;;0.40;;
3589;SDS011;1809;48.470;9.226;2023-08-06T11:16:05;0.60;;;0.50;;
3589;SDS011;1809;48.470;9.226;2023-08-06T11:18:31;0.60;;;0.50;;
3589;SDS011;1809;48.470;9.226;2023-08-06T11:21:00;1.80;;;0.43;;
3589;SDS011;1809;48.470;9.226;2023-08-06T11:23:30;0.73;;;0.50;;
3589;SDS011;1809;48.470;9.226;2023-08-06T11:25:58;0.60;;;0.50;;
3589;SDS011;1809;48.470;9.226;2023-08-06T11:28:24;0.40;;;0.40;;
3589;SDS011;1809;48.470;9.226;2023-08-06T11:30:50;0.50;;;0.50;;
3589;SDS011;1809;48.470;9.226;2023-08-06T11:33:25;0.50;;;0.50;;
3589;SDS011;1809;48.470;9.226;2023-08-06T11:35:51;0.70;;;0.60;;
3589;SDS011;1809;48.470;9.226;2023-08-06T11:38:17;0.50;;;0.50;;
3589;SDS011;1809;48.470;9.226;2023-08-06T11:40:52;0.70;;;0.70;;
3589;SDS011;1809;48.470;9.226;2023-08-06T11:43:21;0.73;;;0.73;;
3589;SDS011;1809;48.470;9.226;2023-08-06T11:45:47;0.60;;;0.60;;
3589;SDS011;1809;48.470;9.226;2023-08-06T11:48:13;2.40;;;0.50;;
3589;SDS011;1809;48.470;9.226;2023-08-06T11:50:38;0.50;;;0.50;;
3589;SDS011;1809;48.470;9.226;2023-08-06T11:53:04;0.67;;;0.67;;
3589;SDS011;1809;48.470;9.226;2023-08-06T11:55:30;0.50;;;0.50;;
3589;SDS011;1809;48.470;9.226;2023-08-06T11:57:56;0.50;;;0.50;;
3589;SDS011;1809;48.470;9.226;2023-08-06T12:00:25;0.50;;;0.50;;
3589;SDS011;1809;48.470;9.226;2023-08-06T12:05:19;0.80;;;0.50;;
3589;SDS011;1809;48.470;9.226;2023-08-06T12:07:55;0.40;;;0.40;;
3589;SDS011;1809;48.470;9.226;2023-08-06T12:10:22;0.90;;;0.50;;
3589;SDS011;1809;48.470;9.226;2023-08-06T12:12:49;0.50;;;0.50;;
3589;SDS011;1809;48.470;9.226;2023-08-06T12:15:15;0.50;;;0.50;;
3589;SDS011;1809;48.470;9.226;2023-08-06T12:17:40;0.50;;;0.50;;
3589;SDS011;1809;48.470;9.226;2023-08-06T12:20:06;0.50;;;0.50;;
3589;SDS011;1809;48.470;9.226;2023-08-06T12:22:32;1.43;;;0.50;;
3589;SDS011;1809;48.470;9.226;2023-08-06T12:25:02;0.47;;;0.47;;
3589;SDS011;1809;48.470;9.226;2023-08-06T12:27:28;0.60;;;0.60;;
3589;SDS011;1809;48.470;9.226;2023-08-06T12:29:54;0.60;;;0.60;;
3589;SDS011;1809;48.470;9.226;2023-08-06T12:32:19;0.67;;;0.67;;
3589;SDS011;1809;48.470;9.226;2023-08-06T12:34:45;0.90;;;0.90;;
3589;SDS011;1809;48.470;9.226;2023-08-06T12:37:10;1.33;;;0.80;;
3589;SDS011;1809;48.470;9.226;2023-08-06T12:39:36;1.00;;;0.90;;
3589;SDS011;1809;48.470;9.226;2023-08-06T12:42:02;1.07;;;1.00;;
3589;SDS011;1809;48.470;9.226;2023-08-06T12:44:29;1.00;;;1.00;;
3589;SDS011;1809;48.470;9.226;2023-08-06T12:46:55;0.80;;;0.80;;
3589;SDS011;1809;48.470;9.226;2023-08-06T12:49:20;0.70;;;0.70;;
3589;SDS011;1809;48.470;9.226;2023-08-06T12:51:46;0.90;;;0.90;;
3589;SDS011;1809;48.470;9.226;2023-08-06T12:54:12;1.00;;;1.00;;
3589;SDS011;1809;48.470;9.226;2023-08-06T12:56:37;0.90;;;0.90;;
3589;SDS011;1809;48.470;9.226;2023-08-06T12:59:02;0.80;;;0.80;;
3589;SDS011;1809;48.470;9.226;2023-08-06T13:01:28;0.83;;;0.83;;
3589;SDS011;1809;48.470;9.226;2023-08-06T13:03:53;2.30;;;1.00;;
3589;SDS011;1809;48.470;9.226;2023-08-06T13:06:18;1.33;;;0.70;;
3589;SDS011;1809;48.470;9.226;2023-08-06T13:08:44;0.90;;;0.90;;
3589;SDS011;1809;48.470;9.226;2023-08-06T13:11:09;0.80;;;0.80;;
3589;SDS011;1809;48.470;9.226;2023-08-06T13:13:34;0.83;;;0.83;;
3589;SDS011;1809;48.470;9.226;2023-08-06T13:16:00;1.17;;;0.70;;
3589;SDS011;1809;48.470;9.226;2023-08-06T13:18:25;0.90;;;0.90;;
3589;SDS011;1809;48.470;9.226;2023-08-06T13:20:52;0.90;;;0.90;;
3589;SDS011;1809;48.470;9.226;2023-08-06T13:23:19;0.90;;;0.60;;
3589;SDS011;1809;48.470;9.226;2023-08-06T13:25:44;0.70;;;0.70;;
3589;SDS011;1809;48.470;9.226;2023-08-06T13:28:10;0.70;;;0.67;;
3589;SDS011;1809;48.470;9.226;2023-08-06T13:30:35;3.73;;;0.70;;
3589;SDS011;1809;48.470;9.226;2023-08-06T13:33:06;0.80;;;0.80;;
3589;SDS011;1809;48.470;9.226;2023-08-06T13:35:32;0.73;;;0.73;;
3589;SDS011;1809;48.470;9.226;2023-08-06T13:37:57;0.73;;;0.73;;
3589;SDS011;1809;48.470;9.226;2023-08-06T13:40:23;0.70;;;0.70;;
3589;SDS011;1809;48.470;9.226;2023-08-06T13:42:48;0.70;;;0.60;;
3589;SDS011;1809;48.470;9.226;2023-08-06T13:45:13;0.80;;;0.70;;
3589;SDS011;1809;48.470;9.226;2023-08-06T13:47:39;0.80;;;0.80;;
3589;SDS011;1809;48.470;9.226;2023-08-06T13:50:04;0.60;;;0.60;;
3589;SDS011;1809;48.470;9.226;2023-08-06T13:52:30;0.83;;;0.83;;
3589;SDS011;1809;48.470;9.226;2023-08-06T13:54:56;0.60;;;0.60;;
3589;SDS011;1809;48.470;9.226;2023-08-06T13:57:21;0.60;;;0.60;;
3589;SDS011;1809;48.470;9.226;2023-08-06T13:59:46;1.80;;;0.70;;
3589;SDS011;1809;48.470;9.226;2023-08-06T14:02:12;0.77;;;0.77;;
3589;SDS011;1809;48.470;9.226;2023-08-06T14:04:37;1.33;;;0.80;;
3589;SDS011;1809;48.470;9.226;2023-08-06T14:07:03;0.70;;;0.70;;
3589;SDS011;1809;48.470;9.226;2023-08-06T14:09:29;3.40;;;0.73;;
3589;SDS011;1809;48.470;9.226;2023-08-06T14:11:54;1.70;;;0.67;;
3589;SDS011;1809;48.470;9.226;2023-08-06T14:14:19;0.60;;;0.60;;
3589;SDS011;1809;48.470;9.226;2023-08-06T14:16:50;0.60;;;0.60;;
3589;SDS011;1809;48.470;9.226;2023-08-06T14:19:16;0.57;;;0.57;;
3589;SDS011;1809;48.470;9.226;2023-08-06T14:21:42;0.60;;;0.60;;
3589;SDS011;1809;48.470;9.226;2023-08-06T14:24:07;2.20;;;0.70;;
3589;SDS011;1809;48.470;9.226;2023-08-06T14:26:32;0.53;;;0.53;;
3589;SDS011;1809;48.470;9.226;2023-08-06T14:28:58;0.90;;;0.67;;
3589;SDS011;1809;48.470;9.226;2023-08-06T14:31:23;0.60;;;0.60;;
3589;SDS011;1809;48.470;9.226;2023-08-06T14:33:48;0.60;;;0.60;;
3589;SDS011;1809;48.470;9.226;2023-08-06T14:36:13;0.60;;;0.60;;
3589;SDS011;1809;48.470;9.226;2023-08-06T14:38:39;1.10;;;0.53;;
3589;SDS011;1809;48.470;9.226;2023-08-06T14:41:04;0.70;;;0.70;;
3589;SDS011;1809;48.470;9.226;2023-08-06T14:43:29;0.80;;;0.50;;
3589;SDS011;1809;48.470;9.226;2023-08-06T14:45:55;0.60;;;0.60;;
3589;SDS011;1809;48.470;9.226;2023-08-06T14:48:20;0.83;;;0.77;;
3589;SDS011;1809;48.470;9.226;2023-08-06T14:50:45;0.53;;;0.50;;
3589;SDS011;1809;48.470;9.226;2023-08-06T14:53:11;0.70;;;0.70;;
3589;SDS011;1809;48.470;9.226;2023-08-06T14:55:37;0.97;;;0.60;;
3589;SDS011;1809;48.470;9.226;2023-08-06T14:58:03;0.60;;;0.60;;
3589;SDS011;1809;48.470;9.226;2023-08-06T15:00:29;0.60;;;0.60;;
3589;SDS011;1809;48.470;9.226;2023-08-06T15:02:54;0.80;;;0.80;;
3589;SDS011;1809;48.470;9.226;2023-08-06T15:05:19;5.07;;;0.70;;
3589;SDS011;1809;48.470;9.226;2023-08-06T15:07:45;0.70;;;0.70;;
3589;SDS011;1809;48.470;9.226;2023-08-06T15:10:10;0.60;;;0.60;;
3589;SDS011;1809;48.470;9.226;2023-08-06T15:12:35;0.60;;;0.60;;
3589;SDS011;1809;48.470;9.226;2023-08-06T15:15:01;5.93;;;0.50;;
3589;SDS011;1809;48.470;9.226;2023-08-06T15:17:27;0.70;;;0.60;;
3589;SDS011;1809;48.470;9.226;2023-08-06T15:19:55;0.63;;;0.63;;
3589;SDS011;1809;48.470;9.226;2023-08-06T15:22:22;0.70;;;0.53;;